sensor_id;sensor_type;location;lat;lon;timestamp;pressure;altitude;pressure_sealevel;temperature;humidity
56713;BME280;42589;45.536;9.032;2023-02-28T00:00:56;100205.25;;;13.50;37.12
56713;BME280;42589;45.536;9.032;2023-02-28T00:03:58;100190.78;;;13.68;36.89
56713;BME280;42589;45.536;9.032;2023-02-28T00:06:59;100203.88;;;13.80;36.46
56713;BME280;42589;45.536;9.032;2023-02-28T00:10:00;100188.59;;;13.56;36.81
56713;BME280;42589;45.536;9.032;2023-02-28T00:13:04;100197.25;;;12.89;38.94
56713;BME280;42589;45.536;9.032;2023-02-28T00:16:19;100204.34;;;12.72;39.94
56713;BME280;42589;45.536;9.032;2023-02-28T00:19:21;100222.00;;;13.26;38.79
56713;BME280;42589;45.536;9.032;2023-02-28T00:22:25;100206.69;;;12.14;41.54
56713;BME280;42589;45.536;9.032;2023-02-28T00:25:26;100217.69;;;12.37;41.23
56713;BME280;42589;45.536;9.032;2023-02-28T00:28:28;100216.81;;;13.24;39.38
56713;BME280;42589;45.536;9.032;2023-02-28T00:31:28;100215.13;;;12.27;41.62
56713;BME280;42589;45.536;9.032;2023-02-28T00:34:29;100221.34;;;12.53;42.05
56713;BME280;42589;45.536;9.032;2023-02-28T00:37:30;100220.34;;;12.72;41.54
56713;BME280;42589;45.536;9.032;2023-02-28T00:40:31;100219.50;;;12.72;41.95
56713;BME280;42589;45.536;9.032;2023-02-28T00:43:34;100202.13;;;12.68;41.47
56713;BME280;42589;45.536;9.032;2023-02-28T00:46:35;100214.38;;;12.17;42.62
56713;BME280;42589;45.536;9.032;2023-02-28T00:49:36;100218.19;;;12.76;42.18
56713;BME280;42589;45.536;9.032;2023-02-28T00:52:37;100229.34;;;12.97;42.14
56713;BME280;42589;45.536;9.032;2023-02-28T00:55:38;100218.22;;;12.58;42.00
56713;BME280;42589;45.536;9.032;2023-02-28T00:58:39;100209.50;;;12.74;42.76
56713;BME280;42589;45.536;9.032;2023-02-28T01:01:40;100226.44;;;12.65;42.13
56713;BME280;42589;45.536;9.032;2023-02-28T01:04:41;100213.47;;;12.70;41.49
56713;BME280;42589;45.536;9.032;2023-02-28T01:07:42;100233.91;;;12.61;42.81
56713;BME280;42589;45.536;9.032;2023-02-28T01:10:44;100241.69;;;12.54;43.40
56713;BME280;42589;45.536;9.032;2023-02-28T01:13:47;100224.25;;;12.86;42.76
56713;BME280;42589;45.536;9.032;2023-02-28T01:16:48;100223.09;;;13.15;41.45
56713;BME280;42589;45.536;9.032;2023-02-28T01:19:49;100242.66;;;13.23;41.58
56713;BME280;42589;45.536;9.032;2023-02-28T01:22:53;100225.78;;;12.89;41.51
56713;BME280;42589;45.536;9.032;2023-02-28T01:25:54;100215.00;;;12.98;41.96
56713;BME280;42589;45.536;9.032;2023-02-28T01:28:56;100226.31;;;12.48;42.46
56713;BME280;42589;45.536;9.032;2023-02-28T01:31:59;100235.03;;;12.59;42.43
56713;BME280;42589;45.536;9.032;2023-02-28T01:35:00;100228.53;;;12.53;42.97
56713;BME280;42589;45.536;9.032;2023-02-28T01:38:02;100237.41;;;12.62;42.36
56713;BME280;42589;45.536;9.032;2023-02-28T01:41:03;100219.53;;;12.36;43.33
56713;BME280;42589;45.536;9.032;2023-02-28T01:44:53;100208.56;;;12.57;43.00
56713;BME280;42589;45.536;9.032;2023-02-28T01:47:40;100235.72;;;12.78;42.95
56713;BME280;42589;45.536;9.032;2023-02-28T01:50:44;100233.19;;;12.77;43.01
56713;BME280;42589;45.536;9.032;2023-02-28T01:53:49;100218.63;;;12.71;42.38
56713;BME280;42589;45.536;9.032;2023-02-28T01:56:58;100222.91;;;12.82;42.13
56713;BME280;42589;45.536;9.032;2023-02-28T02:00:06;100208.19;;;12.78;43.49
56713;BME280;42589;45.536;9.032;2023-02-28T02:03:12;100222.88;;;12.56;42.79
56713;BME280;42589;45.536;9.032;2023-02-28T02:06:14;100221.28;;;12.89;42.93
56713;BME280;42589;45.536;9.032;2023-02-28T02:09:15;100215.31;;;12.69;43.21
56713;BME280;42589;45.536;9.032;2023-02-28T02:12:39;100227.34;;;12.99;43.28
56713;BME280;42589;45.536;9.032;2023-02-28T02:16:26;100218.19;;;13.02;42.58
56713;BME280;42589;45.536;9.032;2023-02-28T02:23:27;100217.94;;;13.13;43.15
56713;BME280;42589;45.536;9.032;2023-02-28T02:36:33;100225.09;;;12.87;42.01
56713;BME280;42589;45.536;9.032;2023-02-28T02:42:56;100227.53;;;12.80;41.27
56713;BME280;42589;45.536;9.032;2023-02-28T02:46:12;100219.81;;;12.95;41.28
56713;BME280;42589;45.536;9.032;2023-02-28T02:49:42;100227.66;;;12.96;40.98
56713;BME280;42589;45.536;9.032;2023-02-28T02:52:48;100230.16;;;12.72;39.92
56713;BME280;42589;45.536;9.032;2023-02-28T02:55:52;100228.22;;;12.38;39.00
56713;BME280;42589;45.536;9.032;2023-02-28T02:58:57;100233.72;;;12.81;39.09
56713;BME280;42589;45.536;9.032;2023-02-28T03:02:04;100243.09;;;12.85;38.82
56713;BME280;42589;45.536;9.032;2023-02-28T03:05:13;100236.47;;;12.97;38.14
56713;BME280;42589;45.536;9.032;2023-02-28T03:08:17;100231.03;;;12.81;38.59
56713;BME280;42589;45.536;9.032;2023-02-28T03:11:18;100225.50;;;12.12;37.85
56713;BME280;42589;45.536;9.032;2023-02-28T03:18:10;100246.09;;;12.46;37.25
56713;BME280;42589;45.536;9.032;2023-02-28T03:21:38;100238.88;;;11.75;37.63
56713;BME280;42589;45.536;9.032;2023-02-28T03:31:18;100251.13;;;12.93;36.61
56713;BME280;42589;45.536;9.032;2023-02-28T03:34:29;100243.41;;;12.82;37.27
56713;BME280;42589;45.536;9.032;2023-02-28T03:37:31;100242.28;;;12.66;37.38
56713;BME280;42589;45.536;9.032;2023-02-28T03:40:36;100239.25;;;12.87;37.51
56713;BME280;42589;45.536;9.032;2023-02-28T03:43:41;100251.03;;;13.02;36.79
56713;BME280;42589;45.536;9.032;2023-02-28T03:46:55;100256.78;;;12.90;37.30
56713;BME280;42589;45.536;9.032;2023-02-28T03:50:03;100257.28;;;13.37;37.09
56713;BME280;42589;45.536;9.032;2023-02-28T03:53:11;100263.06;;;12.81;38.11
56713;BME280;42589;45.536;9.032;2023-02-28T03:56:34;100253.16;;;12.91;38.55
56713;BME280;42589;45.536;9.032;2023-02-28T03:59:48;100237.22;;;12.81;38.13
56713;BME280;42589;45.536;9.032;2023-02-28T04:02:53;100239.53;;;12.76;37.70
56713;BME280;42589;45.536;9.032;2023-02-28T04:05:55;100258.81;;;12.70;37.76
56713;BME280;42589;45.536;9.032;2023-02-28T04:08:58;100223.81;;;12.11;38.21
56713;BME280;42589;45.536;9.032;2023-02-28T04:12:00;100248.09;;;12.26;37.97
56713;BME280;42589;45.536;9.032;2023-02-28T04:15:01;100252.06;;;12.40;38.16
56713;BME280;42589;45.536;9.032;2023-02-28T04:18:02;100258.97;;;11.32;38.89
56713;BME280;42589;45.536;9.032;2023-02-28T04:21:04;100246.13;;;11.82;38.41
56713;BME280;42589;45.536;9.032;2023-02-28T04:24:07;100270.41;;;11.52;38.72
56713;BME280;42589;45.536;9.032;2023-02-28T04:27:08;100258.50;;;12.01;38.36
56713;BME280;42589;45.536;9.032;2023-02-28T04:30:10;100248.69;;;12.02;37.80
56713;BME280;42589;45.536;9.032;2023-02-28T04:33:11;100248.84;;;12.00;37.75
56713;BME280;42589;45.536;9.032;2023-02-28T04:36:11;100229.78;;;11.77;37.93
56713;BME280;42589;45.536;9.032;2023-02-28T04:39:15;100249.31;;;12.49;37.83
56713;BME280;42589;45.536;9.032;2023-02-28T04:42:15;100248.25;;;12.06;37.04
56713;BME280;42589;45.536;9.032;2023-02-28T04:45:16;100249.91;;;12.07;37.01
56713;BME280;42589;45.536;9.032;2023-02-28T04:48:19;100271.34;;;12.16;37.80
56713;BME280;42589;45.536;9.032;2023-02-28T04:51:21;100262.19;;;12.18;37.38
56713;BME280;42589;45.536;9.032;2023-02-28T04:54:22;100260.13;;;12.30;37.32
56713;BME280;42589;45.536;9.032;2023-02-28T04:57:23;100247.91;;;11.92;37.49
56713;BME280;42589;45.536;9.032;2023-02-28T05:00:24;100265.47;;;12.12;37.62
56713;BME280;42589;45.536;9.032;2023-02-28T05:03:25;100247.56;;;12.22;37.66
56713;BME280;42589;45.536;9.032;2023-02-28T05:06:27;100269.00;;;12.30;36.92
56713;BME280;42589;45.536;9.032;2023-02-28T05:09:31;100268.56;;;11.90;38.02
56713;BME280;42589;45.536;9.032;2023-02-28T05:12:33;100282.03;;;12.77;37.04
56713;BME280;42589;45.536;9.032;2023-02-28T05:15:36;100285.03;;;12.39;36.61
56713;BME280;42589;45.536;9.032;2023-02-28T05:18:38;100275.28;;;12.29;36.63
56713;BME280;42589;45.536;9.032;2023-02-28T05:21:41;100273.69;;;12.54;36.70
56713;BME280;42589;45.536;9.032;2023-02-28T05:24:44;100245.50;;;12.16;36.61
56713;BME280;42589;45.536;9.032;2023-02-28T05:27:45;100269.44;;;12.26;37.76
56713;BME280;42589;45.536;9.032;2023-02-28T05:30:46;100283.00;;;12.15;37.81
56713;BME280;42589;45.536;9.032;2023-02-28T05:33:47;100290.00;;;12.51;37.52
56713;BME280;42589;45.536;9.032;2023-02-28T05:36:48;100275.44;;;12.46;36.98
56713;BME280;42589;45.536;9.032;2023-02-28T05:39:50;100270.03;;;12.55;36.09
56713;BME280;42589;45.536;9.032;2023-02-28T05:42:51;100275.09;;;11.95;37.37
56713;BME280;42589;45.536;9.032;2023-02-28T05:45:56;100270.31;;;11.71;37.88
56713;BME280;42589;45.536;9.032;2023-02-28T05:48:57;100266.66;;;11.72;37.93
56713;BME280;42589;45.536;9.032;2023-02-28T05:52:00;100284.31;;;12.01;37.60
56713;BME280;42589;45.536;9.032;2023-02-28T05:55:01;100289.81;;;11.99;37.56
56713;BME280;42589;45.536;9.032;2023-02-28T05:58:02;100274.31;;;11.85;37.13
56713;BME280;42589;45.536;9.032;2023-02-28T06:01:40;100292.06;;;11.94;37.21
56713;BME280;42589;45.536;9.032;2023-02-28T06:04:41;100261.44;;;11.80;37.07
56713;BME280;42589;45.536;9.032;2023-02-28T06:07:45;100289.19;;;11.50;37.21
56713;BME280;42589;45.536;9.032;2023-02-28T06:10:46;100284.72;;;12.24;37.10
56713;BME280;42589;45.536;9.032;2023-02-28T06:13:47;100268.28;;;11.83;37.22
56713;BME280;42589;45.536;9.032;2023-02-28T06:16:48;100275.91;;;12.05;37.41
56713;BME280;42589;45.536;9.032;2023-02-28T06:19:57;100276.50;;;12.17;36.75
56713;BME280;42589;45.536;9.032;2023-02-28T06:22:58;100295.09;;;12.27;36.46
56713;BME280;42589;45.536;9.032;2023-02-28T06:25:59;100272.69;;;12.20;36.93
56713;BME280;42589;45.536;9.032;2023-02-28T06:29:01;100295.94;;;12.27;36.09
56713;BME280;42589;45.536;9.032;2023-02-28T06:32:02;100272.72;;;11.65;37.73
56713;BME280;42589;45.536;9.032;2023-02-28T06:35:03;100298.75;;;12.26;36.39
56713;BME280;42589;45.536;9.032;2023-02-28T06:38:04;100307.72;;;12.43;36.42
56713;BME280;42589;45.536;9.032;2023-02-28T06:41:07;100296.06;;;12.62;36.55
56713;BME280;42589;45.536;9.032;2023-02-28T06:44:14;100301.66;;;12.50;35.76
56713;BME280;42589;45.536;9.032;2023-02-28T06:47:15;100306.03;;;12.24;36.41
56713;BME280;42589;45.536;9.032;2023-02-28T06:50:17;100307.69;;;12.35;36.93
56713;BME280;42589;45.536;9.032;2023-02-28T06:53:30;100293.66;;;12.15;36.47
56713;BME280;42589;45.536;9.032;2023-02-28T06:56:31;100304.41;;;12.41;37.29
56713;BME280;42589;45.536;9.032;2023-02-28T06:59:31;100306.13;;;12.68;36.87
56713;BME280;42589;45.536;9.032;2023-02-28T07:02:34;100294.19;;;12.36;36.78
56713;BME280;42589;45.536;9.032;2023-02-28T07:05:36;100299.28;;;12.12;37.38
56713;BME280;42589;45.536;9.032;2023-02-28T07:08:38;100304.34;;;12.05;37.53
56713;BME280;42589;45.536;9.032;2023-02-28T07:11:40;100314.00;;;12.51;37.00
56713;BME280;42589;45.536;9.032;2023-02-28T07:14:43;100305.44;;;12.30;37.37
56713;BME280;42589;45.536;9.032;2023-02-28T07:17:44;100321.38;;;12.22;37.76
56713;BME280;42589;45.536;9.032;2023-02-28T07:20:45;100315.13;;;12.49;36.82
56713;BME280;42589;45.536;9.032;2023-02-28T07:23:47;100306.59;;;12.63;36.60
56713;BME280;42589;45.536;9.032;2023-02-28T07:27:07;100318.19;;;12.54;37.13
56713;BME280;42589;45.536;9.032;2023-02-28T07:30:09;100335.16;;;12.71;37.66
56713;BME280;42589;45.536;9.032;2023-02-28T07:33:10;100317.94;;;12.65;37.19
56713;BME280;42589;45.536;9.032;2023-02-28T07:36:14;100341.00;;;12.21;37.43
56713;BME280;42589;45.536;9.032;2023-02-28T07:39:15;100321.19;;;12.23;37.88
56713;BME280;42589;45.536;9.032;2023-02-28T07:42:19;100326.84;;;12.20;37.89
56713;BME280;42589;45.536;9.032;2023-02-28T07:45:21;100335.28;;;12.16;37.83
56713;BME280;42589;45.536;9.032;2023-02-28T07:48:22;100331.91;;;12.41;37.34
56713;BME280;42589;45.536;9.032;2023-02-28T07:51:24;100344.00;;;12.36;37.07
56713;BME280;42589;45.536;9.032;2023-02-28T07:54:25;100323.28;;;12.83;36.88
56713;BME280;42589;45.536;9.032;2023-02-28T07:57:29;100348.84;;;13.12;36.36
56713;BME280;42589;45.536;9.032;2023-02-28T08:00:31;100331.34;;;12.91;36.88
56713;BME280;42589;45.536;9.032;2023-02-28T08:03:32;100332.53;;;12.07;38.48
56713;BME280;42589;45.536;9.032;2023-02-28T08:06:34;100337.31;;;12.67;37.34
56713;BME280;42589;45.536;9.032;2023-02-28T08:09:35;100344.56;;;13.19;36.13
56713;BME280;42589;45.536;9.032;2023-02-28T08:12:36;100336.25;;;13.22;35.57
56713;BME280;42589;45.536;9.032;2023-02-28T08:15:40;100324.03;;;12.40;36.60
56713;BME280;42589;45.536;9.032;2023-02-28T08:18:42;100318.75;;;13.45;35.49
56713;BME280;42589;45.536;9.032;2023-02-28T08:21:44;100334.56;;;13.73;35.56
56713;BME280;42589;45.536;9.032;2023-02-28T08:24:45;100330.34;;;13.97;35.43
56713;BME280;42589;45.536;9.032;2023-02-28T08:27:46;100350.44;;;13.75;34.69
56713;BME280;42589;45.536;9.032;2023-02-28T08:30:46;100346.81;;;13.50;36.14
56713;BME280;42589;45.536;9.032;2023-02-28T08:33:47;100350.41;;;13.40;35.99
56713;BME280;42589;45.536;9.032;2023-02-28T08:36:53;100343.13;;;13.51;36.29
56713;BME280;42589;45.536;9.032;2023-02-28T08:39:54;100346.38;;;13.62;37.04
56713;BME280;42589;45.536;9.032;2023-02-28T08:42:59;100343.38;;;13.65;36.15
56713;BME280;42589;45.536;9.032;2023-02-28T08:46:01;100354.06;;;13.13;37.49
56713;BME280;42589;45.536;9.032;2023-02-28T08:49:04;100345.56;;;13.18;37.70
56713;BME280;42589;45.536;9.032;2023-02-28T08:52:06;100358.56;;;14.50;35.12
56713;BME280;42589;45.536;9.032;2023-02-28T08:55:07;100348.56;;;14.52;34.37
56713;BME280;42589;45.536;9.032;2023-02-28T08:58:09;100364.78;;;14.58;34.57
56713;BME280;42589;45.536;9.032;2023-02-28T09:01:15;100367.50;;;14.67;35.44
56713;BME280;42589;45.536;9.032;2023-02-28T09:04:17;100366.03;;;13.87;34.65
56713;BME280;42589;45.536;9.032;2023-02-28T09:07:20;100368.69;;;14.30;33.85
56713;BME280;42589;45.536;9.032;2023-02-28T09:10:24;100356.19;;;14.38;34.17
56713;BME280;42589;45.536;9.032;2023-02-28T09:13:26;100372.84;;;14.83;33.13
56713;BME280;42589;45.536;9.032;2023-02-28T09:16:27;100382.91;;;14.97;34.10
56713;BME280;42589;45.536;9.032;2023-02-28T09:19:29;100373.69;;;14.83;33.47
56713;BME280;42589;45.536;9.032;2023-02-28T09:22:29;100380.91;;;14.75;34.11
56713;BME280;42589;45.536;9.032;2023-02-28T09:25:31;100375.38;;;15.33;33.10
56713;BME280;42589;45.536;9.032;2023-02-28T09:28:32;100363.50;;;15.20;32.66
56713;BME280;42589;45.536;9.032;2023-02-28T09:31:34;100378.22;;;15.32;32.81
56713;BME280;42589;45.536;9.032;2023-02-28T09:34:35;100374.69;;;15.31;32.52
56713;BME280;42589;45.536;9.032;2023-02-28T09:37:37;100386.56;;;15.37;33.24
56713;BME280;42589;45.536;9.032;2023-02-28T09:40:45;100382.19;;;15.52;32.83
56713;BME280;42589;45.536;9.032;2023-02-28T09:43:57;100392.22;;;15.83;32.16
56713;BME280;42589;45.536;9.032;2023-02-28T09:47:04;100393.59;;;15.46;32.68
56713;BME280;42589;45.536;9.032;2023-02-28T09:50:41;100385.69;;;15.77;33.26
56713;BME280;42589;45.536;9.032;2023-02-28T09:53:47;100385.06;;;15.67;32.39
56713;BME280;42589;45.536;9.032;2023-02-28T09:57:13;100395.13;;;16.13;31.48
56713;BME280;42589;45.536;9.032;2023-02-28T10:00:32;100378.72;;;15.36;32.51
56713;BME280;42589;45.536;9.032;2023-02-28T10:03:41;100399.47;;;16.14;31.85
56713;BME280;42589;45.536;9.032;2023-02-28T10:06:48;100394.69;;;15.93;31.56
56713;BME280;42589;45.536;9.032;2023-02-28T10:09:53;100377.25;;;15.97;31.69
56713;BME280;42589;45.536;9.032;2023-02-28T10:12:59;100392.69;;;16.65;31.59
56713;BME280;42589;45.536;9.032;2023-02-28T10:16:14;100392.00;;;16.40;31.30
56713;BME280;42589;45.536;9.032;2023-02-28T10:19:39;100384.41;;;17.21;31.11
56713;BME280;42589;45.536;9.032;2023-02-28T10:26:13;100362.59;;;16.47;31.58
56713;BME280;42589;45.536;9.032;2023-02-28T10:29:16;100381.81;;;16.59;31.33
56713;BME280;42589;45.536;9.032;2023-02-28T10:32:19;100376.88;;;16.70;30.65
56713;BME280;42589;45.536;9.032;2023-02-28T10:35:23;100391.66;;;16.98;31.42
56713;BME280;42589;45.536;9.032;2023-02-28T10:38:36;100390.16;;;16.64;30.12
56713;BME280;42589;45.536;9.032;2023-02-28T10:41:42;100400.03;;;16.40;32.10
56713;BME280;42589;45.536;9.032;2023-02-28T10:44:43;100369.50;;;16.96;30.21
56713;BME280;42589;45.536;9.032;2023-02-28T10:47:59;100376.03;;;17.39;31.33
56713;BME280;42589;45.536;9.032;2023-02-28T10:51:01;100384.13;;;17.31;30.32
56713;BME280;42589;45.536;9.032;2023-02-28T10:54:04;100370.31;;;16.73;30.64
56713;BME280;42589;45.536;9.032;2023-02-28T10:57:09;100372.66;;;16.45;31.52
56713;BME280;42589;45.536;9.032;2023-02-28T11:03:32;100360.41;;;16.97;30.96
56713;BME280;42589;45.536;9.032;2023-02-28T11:06:34;100367.16;;;17.68;29.04
56713;BME280;42589;45.536;9.032;2023-02-28T11:09:38;100356.28;;;15.45;33.02
56713;BME280;42589;45.536;9.032;2023-02-28T11:12:40;100362.25;;;16.19;30.99
56713;BME280;42589;45.536;9.032;2023-02-28T11:15:57;100355.06;;;16.42;31.59
56713;BME280;42589;45.536;9.032;2023-02-28T11:19:25;100356.13;;;16.02;31.36
56713;BME280;42589;45.536;9.032;2023-02-28T11:22:29;100344.41;;;17.41;30.89
56713;BME280;42589;45.536;9.032;2023-02-28T11:25:34;100327.41;;;17.93;30.63
56713;BME280;42589;45.536;9.032;2023-02-28T11:28:38;100344.91;;;15.98;31.99
56713;BME280;42589;45.536;9.032;2023-02-28T11:31:39;100329.00;;;16.82;31.55
56713;BME280;42589;45.536;9.032;2023-02-28T11:34:41;100323.00;;;17.33;30.50
56713;BME280;42589;45.536;9.032;2023-02-28T11:37:43;100329.34;;;16.56;31.94
56713;BME280;42589;45.536;9.032;2023-02-28T11:51:32;100311.41;;;15.30;33.55
56713;BME280;42589;45.536;9.032;2023-02-28T11:55:05;100291.25;;;16.30;31.27
56713;BME280;42589;45.536;9.032;2023-02-28T12:01:52;100299.56;;;13.24;35.48
56713;BME280;42589;45.536;9.032;2023-02-28T12:18:35;100271.59;;;13.62;36.15
56713;BME280;42589;45.536;9.032;2023-02-28T12:25:50;100262.19;;;15.87;32.15
56713;BME280;42589;45.536;9.032;2023-02-28T12:32:22;100244.88;;;15.67;32.55
56713;BME280;42589;45.536;9.032;2023-02-28T12:35:36;100238.47;;;16.68;32.58
56713;BME280;42589;45.536;9.032;2023-02-28T12:38:43;100231.38;;;14.63;34.08
56713;BME280;42589;45.536;9.032;2023-02-28T12:42:16;100239.75;;;13.77;36.14
56713;BME280;42589;45.536;9.032;2023-02-28T12:45:23;100233.66;;;15.55;33.61
56713;BME280;42589;45.536;9.032;2023-02-28T12:51:30;100209.19;;;16.43;31.68
56713;BME280;42589;45.536;9.032;2023-02-28T12:58:05;100233.50;;;16.19;33.16
56713;BME280;42589;45.536;9.032;2023-02-28T13:01:33;100225.97;;;16.60;33.07
56713;BME280;42589;45.536;9.032;2023-02-28T13:11:38;100210.03;;;16.21;32.63
56713;BME280;42589;45.536;9.032;2023-02-28T13:14:40;100208.66;;;15.71;32.97
56713;BME280;42589;45.536;9.032;2023-02-28T13:17:43;100198.34;;;16.75;32.55
56713;BME280;42589;45.536;9.032;2023-02-28T13:20:48;100193.59;;;16.24;32.30
56713;BME280;42589;45.536;9.032;2023-02-28T13:27:19;100196.19;;;15.86;32.55
56713;BME280;42589;45.536;9.032;2023-02-28T13:40:33;100189.03;;;16.47;31.06
56713;BME280;42589;45.536;9.032;2023-02-28T13:44:41;100190.72;;;15.32;32.26
56713;BME280;42589;45.536;9.032;2023-02-28T13:47:28;100178.00;;;14.70;33.84
56713;BME280;42589;45.536;9.032;2023-02-28T13:50:34;100181.88;;;16.40;32.35
56713;BME280;42589;45.536;9.032;2023-02-28T13:53:59;100171.91;;;16.48;32.02
56713;BME280;42589;45.536;9.032;2023-02-28T14:07:41;100154.34;;;16.46;31.28
56713;BME280;42589;45.536;9.032;2023-02-28T14:10:46;100143.09;;;16.05;32.85
56713;BME280;42589;45.536;9.032;2023-02-28T14:13:50;100149.81;;;16.23;31.93
56713;BME280;42589;45.536;9.032;2023-02-28T14:16:51;100141.88;;;15.61;32.34
56713;BME280;42589;45.536;9.032;2023-02-28T14:19:55;100156.88;;;16.39;31.44
56713;BME280;42589;45.536;9.032;2023-02-28T14:26:42;100152.81;;;15.12;33.63
56713;BME280;42589;45.536;9.032;2023-02-28T14:30:02;100139.22;;;16.45;32.33
56713;BME280;42589;45.536;9.032;2023-02-28T14:36:50;100124.03;;;17.05;30.61
56713;BME280;42589;45.536;9.032;2023-02-28T14:40:00;100131.53;;;16.80;31.64
56713;BME280;42589;45.536;9.032;2023-02-28T14:43:05;100111.91;;;16.94;31.26
56713;BME280;42589;45.536;9.032;2023-02-28T14:46:06;100115.22;;;15.28;32.99
56713;BME280;42589;45.536;9.032;2023-02-28T14:49:18;100120.19;;;16.40;31.97
56713;BME280;42589;45.536;9.032;2023-02-28T14:55:34;100117.19;;;16.35;31.78
56713;BME280;42589;45.536;9.032;2023-02-28T14:58:35;100104.47;;;16.66;32.05
56713;BME280;42589;45.536;9.032;2023-02-28T15:01:36;100123.19;;;17.19;31.00
56713;BME280;42589;45.536;9.032;2023-02-28T15:04:36;100117.16;;;17.53;30.98
56713;BME280;42589;45.536;9.032;2023-02-28T15:07:38;100123.72;;;16.70;31.14
56713;BME280;42589;45.536;9.032;2023-02-28T15:11:02;100097.19;;;16.22;32.11
56713;BME280;42589;45.536;9.032;2023-02-28T15:14:21;100120.13;;;17.22;31.60
56713;BME280;42589;45.536;9.032;2023-02-28T15:17:24;100127.59;;;17.63;30.76
56713;BME280;42589;45.536;9.032;2023-02-28T15:20:26;100113.38;;;17.11;31.19
56713;BME280;42589;45.536;9.032;2023-02-28T15:23:27;100098.97;;;17.34;30.67
56713;BME280;42589;45.536;9.032;2023-02-28T15:26:36;100086.59;;;15.60;33.36
56713;BME280;42589;45.536;9.032;2023-02-28T15:29:45;100092.22;;;15.96;32.74
56713;BME280;42589;45.536;9.032;2023-02-28T15:33:06;100085.13;;;15.58;33.40
56713;BME280;42589;45.536;9.032;2023-02-28T15:36:16;100098.97;;;16.30;32.33
56713;BME280;42589;45.536;9.032;2023-02-28T15:39:23;100090.47;;;16.71;32.28
56713;BME280;42589;45.536;9.032;2023-02-28T15:42:29;100086.13;;;16.55;32.46
56713;BME280;42589;45.536;9.032;2023-02-28T15:45:38;100084.28;;;16.70;32.53
56713;BME280;42589;45.536;9.032;2023-02-28T15:48:53;100096.03;;;16.69;32.99
56713;BME280;42589;45.536;9.032;2023-02-28T15:51:58;100095.75;;;15.43;33.80
56713;BME280;42589;45.536;9.032;2023-02-28T15:55:08;100078.72;;;16.05;32.64
56713;BME280;42589;45.536;9.032;2023-02-28T15:58:12;100058.22;;;15.20;33.54
56713;BME280;42589;45.536;9.032;2023-02-28T16:01:25;100078.09;;;16.40;32.38
56713;BME280;42589;45.536;9.032;2023-02-28T16:04:26;100062.84;;;16.03;32.44
56713;BME280;42589;45.536;9.032;2023-02-28T16:07:32;100039.16;;;14.83;33.71
56713;BME280;42589;45.536;9.032;2023-02-28T16:10:33;100062.66;;;15.67;33.18
56713;BME280;42589;45.536;9.032;2023-02-28T16:13:33;100080.84;;;16.32;32.39
56713;BME280;42589;45.536;9.032;2023-02-28T16:16:42;100060.75;;;16.28;32.44
56713;BME280;42589;45.536;9.032;2023-02-28T16:19:43;100069.94;;;15.73;33.08
56713;BME280;42589;45.536;9.032;2023-02-28T16:22:45;100070.47;;;16.29;32.49
56713;BME280;42589;45.536;9.032;2023-02-28T16:25:46;100056.44;;;16.27;32.49
56713;BME280;42589;45.536;9.032;2023-02-28T16:28:47;100078.97;;;15.80;32.83
56713;BME280;42589;45.536;9.032;2023-02-28T16:31:47;100073.88;;;16.08;33.20
56713;BME280;42589;45.536;9.032;2023-02-28T16:34:48;100058.50;;;16.17;32.72
56713;BME280;42589;45.536;9.032;2023-02-28T16:37:53;100064.44;;;16.12;33.38
56713;BME280;42589;45.536;9.032;2023-02-28T16:40:55;100045.72;;;15.89;33.17
56713;BME280;42589;45.536;9.032;2023-02-28T16:43:58;100057.78;;;16.08;32.71
56713;BME280;42589;45.536;9.032;2023-02-28T16:47:01;100074.50;;;16.10;32.82
56713;BME280;42589;45.536;9.032;2023-02-28T16:50:12;100059.97;;;15.67;33.51
56713;BME280;42589;45.536;9.032;2023-02-28T16:53:13;100064.69;;;16.02;33.26
56713;BME280;42589;45.536;9.032;2023-02-28T16:56:17;100062.22;;;15.47;33.90
56713;BME280;42589;45.536;9.032;2023-02-28T16:59:22;100069.88;;;15.58;33.61
56713;BME280;42589;45.536;9.032;2023-02-28T17:02:23;100081.41;;;16.28;32.99
56713;BME280;42589;45.536;9.032;2023-02-28T17:05:25;100071.38;;;15.84;33.44
56713;BME280;42589;45.536;9.032;2023-02-28T17:08:27;100091.34;;;15.81;33.65
56713;BME280;42589;45.536;9.032;2023-02-28T17:11:30;100090.34;;;15.51;34.51
56713;BME280;42589;45.536;9.032;2023-02-28T17:14:31;100076.03;;;15.36;34.11
56713;BME280;42589;45.536;9.032;2023-02-28T17:17:32;100084.72;;;15.38;34.49
56713;BME280;42589;45.536;9.032;2023-02-28T17:20:34;100100.06;;;15.52;34.39
56713;BME280;42589;45.536;9.032;2023-02-28T17:23:36;100093.56;;;15.46;34.56
56713;BME280;42589;45.536;9.032;2023-02-28T17:26:39;100062.94;;;15.09;34.72
56713;BME280;42589;45.536;9.032;2023-02-28T17:29:40;100073.59;;;15.26;34.37
56713;BME280;42589;45.536;9.032;2023-02-28T17:32:41;100093.53;;;15.23;34.30
56713;BME280;42589;45.536;9.032;2023-02-28T17:35:42;100084.88;;;15.13;34.55
56713;BME280;42589;45.536;9.032;2023-02-28T17:38:43;100077.91;;;14.96;34.59
56713;BME280;42589;45.536;9.032;2023-02-28T17:41:44;100091.13;;;14.97;34.72
56713;BME280;42589;45.536;9.032;2023-02-28T17:44:46;100094.94;;;14.55;35.07
56713;BME280;42589;45.536;9.032;2023-02-28T17:47:49;100093.75;;;14.42;36.71
56713;BME280;42589;45.536;9.032;2023-02-28T17:50:50;100085.63;;;13.94;36.68
56713;BME280;42589;45.536;9.032;2023-02-28T17:53:52;100061.47;;;12.44;39.19
56713;BME280;42589;45.536;9.032;2023-02-28T17:56:52;100080.94;;;13.05;38.52
56713;BME280;42589;45.536;9.032;2023-02-28T17:59:54;100057.63;;;13.23;38.52
56713;BME280;42589;45.536;9.032;2023-02-28T18:02:56;100084.59;;;13.79;37.38
56713;BME280;42589;45.536;9.032;2023-02-28T18:05:58;100076.38;;;12.89;39.11